createdAt,value
2017-08-31T00:00:32.452Z,998.28
2017-08-31T00:01:32.504Z,998.31
2017-08-31T00:02:32.468Z,998.30
2017-08-31T00:03:32.493Z,998.36
2017-08-31T00:04:32.526Z,998.45
2017-08-31T00:05:32.523Z,998.42
2017-08-31T00:06:32.521Z,998.42
2017-08-31T00:07:32.456Z,998.39
2017-08-31T00:08:32.530Z,998.33
2017-08-31T00:09:32.514Z,998.28
2017-08-31T00:10:32.465Z,998.25
2017-08-31T00:11:32.411Z,998.23
2017-08-31T00:12:32.437Z,998.22
2017-08-31T00:13:32.459Z,998.24
2017-08-31T00:14:32.455Z,998.18
2017-08-31T00:15:32.407Z,998.22
2017-08-31T00:16:32.500Z,998.27
2017-08-31T00:17:32.456Z,998.28
2017-08-31T00:18:32.460Z,998.26
2017-08-31T00:19:32.418Z,998.25
2017-08-31T00:20:32.458Z,998.27
2017-08-31T00:21:32.449Z,998.29
2017-08-31T00:22:32.511Z,998.28
2017-08-31T00:23:32.448Z,998.33
2017-08-31T00:24:32.462Z,998.39
2017-08-31T00:25:32.479Z,998.47
2017-08-31T00:26:32.465Z,998.45
2017-08-31T00:27:32.445Z,998.49
2017-08-31T00:28:32.425Z,998.47
2017-08-31T00:29:32.412Z,998.49
2017-08-31T00:30:32.453Z,998.51
2017-08-31T00:31:32.444Z,998.55
2017-08-31T00:32:32.472Z,998.56
2017-08-31T00:33:32.493Z,998.53
2017-08-31T00:34:32.483Z,998.50
2017-08-31T00:35:32.487Z,998.54
2017-08-31T00:36:32.453Z,998.55
2017-08-31T00:37:32.472Z,998.60
2017-08-31T00:38:32.544Z,998.62
2017-08-31T00:39:32.452Z,998.56
2017-08-31T00:40:32.443Z,998.65
2017-08-31T00:41:32.446Z,998.64
2017-08-31T00:42:32.474Z,998.65
2017-08-31T00:43:32.568Z,998.60
2017-08-31T00:44:32.449Z,998.61
2017-08-31T00:45:32.479Z,998.64
2017-08-31T00:46:32.452Z,998.70
2017-08-31T00:47:32.475Z,998.72
2017-08-31T00:48:32.517Z,998.67
2017-08-31T00:49:32.511Z,998.70
2017-08-31T00:50:32.517Z,998.65
2017-08-31T00:51:32.457Z,998.70
2017-08-31T00:52:32.463Z,998.68
2017-08-31T00:53:32.561Z,998.66
2017-08-31T00:54:32.498Z,998.68
2017-08-31T00:55:32.497Z,998.69
2017-08-31T00:56:32.516Z,998.67
2017-08-31T00:57:32.495Z,998.67
2017-08-31T00:58:32.561Z,998.65
2017-08-31T00:59:32.550Z,998.65
2017-08-31T01:00:32.490Z,998.62
2017-08-31T01:01:32.466Z,998.63
2017-08-31T01:02:32.469Z,998.66
2017-08-31T01:03:32.553Z,998.67
2017-08-31T01:04:32.523Z,998.64
2017-08-31T01:05:32.501Z,998.64
2017-08-31T01:06:32.474Z,998.65
2017-08-31T01:07:32.560Z,998.64
2017-08-31T01:08:32.524Z,998.65
2017-08-31T01:09:32.507Z,998.66
2017-08-31T01:10:32.524Z,998.70
2017-08-31T01:11:32.498Z,998.71
2017-08-31T01:12:32.563Z,998.69
2017-08-31T01:13:32.509Z,998.73
2017-08-31T01:14:32.562Z,998.67
2017-08-31T01:15:32.528Z,998.71
2017-08-31T01:16:32.512Z,998.67
2017-08-31T01:17:32.566Z,998.68
2017-08-31T01:18:32.512Z,998.69
2017-08-31T01:19:32.552Z,998.72
2017-08-31T01:20:32.504Z,998.74
2017-08-31T01:21:32.502Z,998.70
2017-08-31T01:22:32.483Z,998.63
2017-08-31T01:23:32.576Z,998.56
2017-08-31T01:24:32.512Z,998.59
2017-08-31T01:25:32.499Z,998.58
2017-08-31T01:26:32.479Z,998.57
2017-08-31T01:27:32.573Z,998.58
2017-08-31T01:28:32.488Z,998.56
2017-08-31T01:29:32.580Z,998.59
2017-08-31T01:30:32.476Z,998.58
2017-08-31T01:31:32.544Z,998.58
2017-08-31T01:32:32.506Z,998.62
2017-08-31T01:33:32.476Z,998.61
2017-08-31T01:34:32.498Z,998.64
2017-08-31T01:35:32.476Z,998.65
2017-08-31T01:36:32.487Z,998.72
2017-08-31T01:37:32.504Z,998.70
2017-08-31T01:38:32.439Z,998.71
2017-08-31T01:39:32.461Z,998.63
2017-08-31T01:40:32.496Z,998.60
2017-08-31T01:41:32.501Z,998.58
2017-08-31T01:42:32.545Z,998.58
2017-08-31T01:43:32.490Z,998.62
2017-08-31T01:44:32.489Z,998.59
2017-08-31T01:45:32.598Z,998.60
2017-08-31T01:46:32.495Z,998.58
2017-08-31T01:47:32.601Z,998.62
2017-08-31T01:48:32.496Z,998.65
2017-08-31T01:49:32.565Z,998.65
2017-08-31T01:50:32.517Z,998.66
2017-08-31T01:51:32.490Z,998.70
2017-08-31T01:52:32.521Z,998.66
2017-08-31T01:53:32.471Z,998.59
2017-08-31T01:54:32.501Z,998.55
2017-08-31T01:55:32.519Z,998.51
2017-08-31T01:56:32.501Z,998.53
2017-08-31T01:57:32.502Z,998.48
2017-08-31T01:58:32.527Z,998.47
2017-08-31T01:59:32.458Z,998.44
2017-08-31T02:00:32.500Z,998.45
2017-08-31T02:01:32.565Z,998.48
2017-08-31T02:02:32.569Z,998.50
2017-08-31T02:03:32.561Z,998.46
2017-08-31T02:04:32.566Z,998.45
2017-08-31T02:05:32.534Z,998.47
2017-08-31T02:06:32.530Z,998.48
2017-08-31T02:07:32.528Z,998.43
2017-08-31T02:08:32.597Z,998.46
2017-08-31T02:09:32.528Z,998.41
2017-08-31T02:10:32.595Z,998.45
2017-08-31T02:11:32.545Z,998.47
2017-08-31T02:12:32.529Z,998.44
2017-08-31T02:13:32.515Z,998.49
2017-08-31T02:14:32.546Z,998.45
2017-08-31T02:15:32.576Z,998.49
2017-08-31T02:16:32.514Z,998.51
2017-08-31T02:17:32.601Z,998.49
2017-08-31T02:18:32.515Z,998.48
2017-08-31T02:19:32.568Z,998.52
2017-08-31T02:20:32.494Z,998.49
2017-08-31T02:21:32.454Z,998.49
2017-08-31T02:22:32.530Z,998.46
2017-08-31T02:23:32.450Z,998.52
2017-08-31T02:24:32.509Z,998.51
2017-08-31T02:25:32.530Z,998.47
2017-08-31T02:26:32.511Z,998.52
2017-08-31T02:27:32.532Z,998.50
2017-08-31T02:28:32.514Z,998.49
2017-08-31T02:29:32.521Z,998.50
2017-08-31T02:30:32.516Z,998.45
2017-08-31T02:31:32.533Z,998.40
2017-08-31T02:32:32.528Z,998.39
2017-08-31T02:33:32.552Z,998.39
2017-08-31T02:34:32.555Z,998.34
2017-08-31T02:35:32.610Z,998.36
2017-08-31T02:36:32.560Z,998.39
2017-08-31T02:37:32.525Z,998.32
2017-08-31T02:38:32.621Z,998.27
2017-08-31T02:39:32.596Z,998.32
2017-08-31T02:40:32.621Z,998.32
2017-08-31T02:41:32.530Z,998.35
2017-08-31T02:42:32.594Z,998.35
2017-08-31T02:43:32.660Z,998.38
2017-08-31T02:44:32.623Z,998.41
2017-08-31T02:45:32.573Z,998.45
2017-08-31T02:46:32.622Z,998.43
2017-08-31T02:47:32.539Z,998.47
2017-08-31T02:48:32.629Z,998.45
2017-08-31T02:49:32.528Z,998.45
2017-08-31T02:50:32.599Z,998.50
2017-08-31T02:51:32.526Z,998.46
2017-08-31T02:52:32.582Z,998.46
2017-08-31T02:53:32.560Z,998.46
2017-08-31T02:54:32.506Z,998.41
2017-08-31T02:55:32.514Z,998.40
2017-08-31T02:56:32.544Z,998.37
2017-08-31T02:57:32.512Z,998.35
2017-08-31T02:58:32.506Z,998.34
2017-08-31T02:59:32.509Z,998.37
2017-08-31T03:00:32.590Z,998.42
2017-08-31T03:01:32.533Z,998.38
2017-08-31T03:02:32.556Z,998.41
2017-08-31T03:03:32.611Z,998.45
2017-08-31T03:04:32.594Z,998.48
2017-08-31T03:05:32.534Z,998.45
2017-08-31T03:06:32.565Z,998.41
2017-08-31T03:07:32.569Z,998.54
2017-08-31T03:08:32.598Z,998.42
2017-08-31T03:09:32.609Z,998.42
2017-08-31T03:10:32.671Z,998.50
2017-08-31T03:11:32.569Z,998.54
2017-08-31T03:12:32.555Z,998.57
2017-08-31T03:13:32.584Z,998.55
2017-08-31T03:14:32.555Z,998.62
2017-08-31T03:15:32.635Z,998.64
2017-08-31T03:16:32.584Z,998.61
2017-08-31T03:17:32.646Z,998.66
2017-08-31T03:18:32.582Z,998.68
2017-08-31T03:19:32.586Z,998.70
2017-08-31T03:20:32.582Z,998.79
2017-08-31T03:21:32.572Z,998.79
2017-08-31T03:22:32.590Z,998.87
2017-08-31T03:23:32.625Z,998.83
2017-08-31T03:24:32.619Z,998.88
2017-08-31T03:25:32.577Z,998.85
2017-08-31T03:26:32.591Z,998.81
2017-08-31T03:27:32.644Z,998.76
2017-08-31T03:28:32.577Z,998.76
2017-08-31T03:29:32.609Z,998.74
2017-08-31T03:30:32.589Z,998.73
2017-08-31T03:31:32.593Z,998.81
2017-08-31T03:32:32.657Z,998.79
2017-08-31T03:33:32.594Z,998.76
2017-08-31T03:34:32.652Z,998.78
2017-08-31T03:35:32.593Z,998.72
2017-08-31T03:36:32.653Z,998.68
2017-08-31T03:37:32.612Z,998.76
2017-08-31T03:38:32.629Z,998.72
2017-08-31T03:39:32.582Z,998.72
2017-08-31T03:40:32.624Z,998.74
2017-08-31T03:41:32.588Z,998.74
2017-08-31T03:42:32.599Z,998.74
2017-08-31T03:43:32.588Z,998.70
2017-08-31T03:44:32.662Z,998.69
2017-08-31T03:45:32.590Z,998.68
2017-08-31T03:46:32.600Z,998.67
2017-08-31T03:47:32.631Z,998.66
2017-08-31T03:48:32.604Z,998.60
2017-08-31T03:49:32.598Z,998.60
2017-08-31T03:50:32.538Z,998.58
2017-08-31T03:51:32.564Z,998.68
2017-08-31T03:52:32.586Z,998.68
2017-08-31T03:53:32.574Z,998.69
2017-08-31T03:54:32.563Z,998.74
2017-08-31T03:55:32.586Z,998.68
2017-08-31T03:56:32.564Z,998.70
2017-08-31T03:57:32.582Z,998.63
2017-08-31T03:58:32.715Z,998.69
2017-08-31T03:59:32.522Z,998.71
2017-08-31T04:00:32.564Z,998.74
2017-08-31T04:01:32.568Z,998.77
2017-08-31T04:02:32.629Z,998.77
2017-08-31T04:03:32.572Z,998.77
2017-08-31T04:04:32.637Z,998.80
2017-08-31T04:05:32.569Z,998.78
2017-08-31T04:06:32.636Z,998.84
2017-08-31T04:07:32.597Z,998.86
2017-08-31T04:08:32.596Z,998.87
2017-08-31T04:09:32.600Z,998.96
2017-08-31T04:10:32.596Z,998.98
2017-08-31T04:11:32.633Z,999.02
2017-08-31T04:12:32.602Z,998.97
2017-08-31T04:13:32.599Z,998.97
2017-08-31T04:14:32.575Z,998.96
2017-08-31T04:15:32.602Z,998.97
2017-08-31T04:16:32.601Z,999.00
2017-08-31T04:17:32.580Z,999.06
2017-08-31T04:18:32.637Z,999.03
2017-08-31T04:19:32.658Z,999.01
2017-08-31T04:20:32.638Z,999.02
2017-08-31T04:21:32.618Z,999.03
2017-08-31T04:22:32.587Z,999.07
2017-08-31T04:23:32.586Z,999.10
2017-08-31T04:24:32.593Z,999.09
2017-08-31T04:25:32.659Z,999.04
2017-08-31T04:26:32.680Z,999.11
2017-08-31T04:27:32.626Z,999.11
2017-08-31T04:28:32.691Z,999.05
2017-08-31T04:29:32.681Z,999.09
2017-08-31T04:30:32.614Z,999.03
2017-08-31T04:31:32.649Z,998.99
2017-08-31T04:32:32.651Z,999.06
2017-08-31T04:33:32.611Z,999.01
2017-08-31T04:34:32.588Z,998.98
2017-08-31T04:35:32.584Z,999.01
2017-08-31T04:36:32.615Z,999.02
2017-08-31T04:37:32.614Z,999.04
2017-08-31T04:38:32.615Z,999.09
2017-08-31T04:39:32.615Z,999.09
2017-08-31T04:40:32.602Z,999.10
2017-08-31T04:41:32.602Z,999.12
2017-08-31T04:42:32.633Z,999.13
2017-08-31T04:43:32.597Z,999.10
2017-08-31T04:44:32.634Z,999.09
2017-08-31T04:45:32.597Z,999.06
2017-08-31T04:47:32.627Z,999.09
2017-08-31T04:48:32.640Z,999.11
2017-08-31T04:49:32.638Z,999.12
2017-08-31T04:50:32.658Z,999.09
2017-08-31T04:51:32.606Z,999.05
2017-08-31T04:52:32.601Z,999.08
2017-08-31T04:53:32.698Z,999.08
2017-08-31T04:54:32.640Z,999.08
2017-08-31T04:55:32.660Z,999.12
2017-08-31T04:56:32.607Z,999.15
2017-08-31T04:57:32.699Z,999.16
2017-08-31T04:58:32.642Z,999.14
2017-08-31T04:59:32.674Z,999.14
2017-08-31T05:00:32.618Z,999.13
2017-08-31T05:01:32.638Z,999.19
2017-08-31T05:02:32.679Z,999.19
2017-08-31T05:03:32.672Z,999.15
2017-08-31T05:04:32.664Z,999.15
2017-08-31T05:05:32.703Z,999.15
2017-08-31T05:06:32.711Z,999.15
2017-08-31T05:07:32.666Z,999.17
2017-08-31T05:08:32.833Z,999.17
2017-08-31T05:09:32.716Z,999.12
2017-08-31T05:10:32.609Z,999.10
2017-08-31T05:11:32.636Z,999.06
2017-08-31T05:12:32.639Z,998.98
2017-08-31T05:13:32.672Z,999.03
2017-08-31T05:14:32.612Z,999.06
2017-08-31T05:15:32.640Z,999.01
2017-08-31T05:16:32.645Z,999.02
2017-08-31T05:17:32.613Z,999.05
2017-08-31T05:18:32.678Z,999.05
2017-08-31T05:19:32.682Z,999.04
2017-08-31T05:20:32.639Z,999.06
2017-08-31T05:21:32.637Z,999.09
2017-08-31T05:22:32.599Z,999.14
2017-08-31T05:23:32.691Z,999.03
2017-08-31T05:24:32.645Z,999.02
2017-08-31T05:25:32.618Z,999.00
2017-08-31T05:26:32.628Z,999.01
2017-08-31T05:27:32.657Z,999.01
2017-08-31T05:28:32.607Z,998.96
2017-08-31T05:29:32.620Z,998.97
2017-08-31T05:30:32.651Z,998.99
2017-08-31T05:31:32.722Z,998.95
2017-08-31T05:32:32.699Z,998.98
2017-08-31T05:33:32.722Z,999.04
2017-08-31T05:34:32.721Z,999.09
2017-08-31T05:35:32.722Z,999.09
2017-08-31T05:36:32.652Z,999.08
2017-08-31T05:37:32.731Z,999.15
2017-08-31T05:38:32.722Z,999.12
2017-08-31T05:39:32.655Z,999.11
2017-08-31T05:40:32.632Z,999.16
2017-08-31T05:41:32.651Z,999.15
2017-08-31T05:42:32.584Z,999.12
2017-08-31T05:43:32.653Z,999.15
2017-08-31T05:44:32.652Z,999.08
2017-08-31T05:45:32.658Z,999.08
2017-08-31T05:46:32.778Z,999.04
2017-08-31T05:47:32.660Z,999.02
2017-08-31T05:48:32.636Z,999.04
2017-08-31T05:49:32.637Z,999.02
2017-08-31T05:50:32.658Z,999.03
2017-08-31T05:51:32.635Z,999.08
2017-08-31T05:52:32.659Z,999.04
2017-08-31T05:53:32.725Z,999.03
2017-08-31T05:54:32.725Z,999.05
2017-08-31T05:55:32.682Z,999.13
2017-08-31T05:56:32.729Z,999.10
2017-08-31T05:57:32.709Z,999.12
2017-08-31T05:58:32.708Z,999.10
2017-08-31T05:59:32.644Z,999.13
2017-08-31T06:00:32.648Z,999.11
2017-08-31T06:01:32.715Z,999.11
2017-08-31T06:02:32.649Z,999.16
2017-08-31T06:03:32.708Z,999.15
2017-08-31T06:04:32.747Z,999.18
2017-08-31T06:05:32.738Z,999.16
2017-08-31T06:06:32.742Z,999.22
2017-08-31T06:07:32.678Z,999.24
2017-08-31T06:08:32.670Z,999.27
2017-08-31T06:09:32.673Z,999.27
2017-08-31T06:10:32.680Z,999.28
2017-08-31T06:11:32.701Z,999.34
2017-08-31T06:12:32.679Z,999.39
2017-08-31T06:13:32.670Z,999.41
2017-08-31T06:14:32.701Z,999.44
2017-08-31T06:15:32.673Z,999.46
2017-08-31T06:16:32.706Z,999.45
2017-08-31T06:17:32.673Z,999.37
2017-08-31T06:18:32.706Z,999.35
2017-08-31T06:19:32.651Z,999.33
2017-08-31T06:20:32.679Z,999.27
2017-08-31T06:21:32.754Z,999.27
2017-08-31T06:22:32.745Z,999.26
2017-08-31T06:23:32.715Z,999.30
2017-08-31T06:24:32.727Z,999.30
2017-08-31T06:25:32.683Z,999.38
2017-08-31T06:26:32.656Z,999.35
2017-08-31T06:27:32.724Z,999.38
2017-08-31T06:28:32.712Z,999.39
2017-08-31T06:29:32.691Z,999.43
2017-08-31T06:30:32.661Z,999.44
2017-08-31T06:31:32.699Z,999.44
2017-08-31T06:32:32.756Z,999.50
2017-08-31T06:33:32.686Z,999.46
2017-08-31T06:34:32.659Z,999.47
2017-08-31T06:35:32.693Z,999.46
2017-08-31T06:36:32.698Z,999.41
2017-08-31T06:37:32.663Z,999.41
2017-08-31T06:38:32.703Z,999.41
2017-08-31T06:39:32.721Z,999.40
2017-08-31T06:40:32.761Z,999.41
2017-08-31T06:41:32.737Z,999.36
2017-08-31T06:42:32.753Z,999.37
2017-08-31T06:43:32.689Z,999.32
2017-08-31T06:44:32.698Z,999.32
2017-08-31T06:45:32.730Z,999.36
2017-08-31T06:46:32.735Z,999.39
2017-08-31T06:47:32.734Z,999.41
2017-08-31T06:48:32.760Z,999.50
2017-08-31T06:49:32.726Z,999.58
2017-08-31T06:50:32.671Z,999.62
2017-08-31T06:51:32.705Z,999.63
2017-08-31T06:52:32.676Z,999.65
2017-08-31T06:53:32.707Z,999.65
2017-08-31T06:54:32.714Z,999.66
2017-08-31T06:55:32.778Z,999.56
2017-08-31T06:56:32.679Z,999.55
2017-08-31T06:57:32.769Z,999.56
2017-08-31T06:58:32.712Z,999.61
2017-08-31T06:59:32.773Z,999.69
2017-08-31T07:00:32.714Z,999.74
2017-08-31T07:01:32.679Z,999.71
2017-08-31T07:02:32.681Z,999.71
2017-08-31T07:03:32.752Z,999.72
2017-08-31T07:04:32.703Z,999.78
2017-08-31T07:05:32.774Z,999.80
2017-08-31T07:06:32.691Z,999.86
2017-08-31T07:07:32.740Z,999.92
2017-08-31T07:08:32.716Z,999.94
2017-08-31T07:09:32.709Z,999.96
2017-08-31T07:10:32.754Z,999.91
2017-08-31T07:11:32.743Z,999.86
2017-08-31T07:12:32.738Z,999.85
2017-08-31T07:13:32.685Z,999.85
2017-08-31T07:14:32.778Z,999.87
2017-08-31T07:15:32.780Z,999.75
2017-08-31T07:16:32.717Z,999.85
2017-08-31T07:17:32.690Z,999.90
2017-08-31T07:18:32.715Z,999.89
2017-08-31T07:19:32.711Z,999.98
2017-08-31T07:20:32.688Z,1000.07
2017-08-31T07:21:32.629Z,1000.04
2017-08-31T07:22:32.668Z,1000.10
2017-08-31T07:23:32.704Z,1000.11
2017-08-31T07:24:32.653Z,1000.17
2017-08-31T07:25:32.687Z,1000.19
2017-08-31T07:26:32.743Z,1000.29
2017-08-31T07:27:32.707Z,1000.29
2017-08-31T07:28:32.631Z,1000.32
2017-08-31T07:29:32.691Z,1000.30
2017-08-31T07:30:32.703Z,1000.33
2017-08-31T07:31:32.753Z,1000.35
2017-08-31T07:32:32.695Z,1000.39
2017-08-31T07:33:32.749Z,1000.43
2017-08-31T07:34:32.771Z,1000.49
2017-08-31T07:35:32.760Z,1000.51
2017-08-31T07:36:32.826Z,1000.64
2017-08-31T07:37:32.847Z,1000.73
2017-08-31T07:38:32.726Z,1000.78
2017-08-31T07:39:32.879Z,1000.78
2017-08-31T07:40:32.881Z,1000.84
2017-08-31T07:41:32.833Z,1000.81
2017-08-31T07:42:32.793Z,1000.83
2017-08-31T07:43:32.786Z,1000.87
2017-08-31T07:44:32.888Z,1000.96
2017-08-31T07:45:32.814Z,1000.99
2017-08-31T07:46:32.849Z,1001.00
2017-08-31T07:47:32.672Z,1001.04
2017-08-31T07:48:32.841Z,1001.12
2017-08-31T07:49:32.681Z,1001.08
2017-08-31T07:50:32.705Z,1001.09
2017-08-31T07:51:32.732Z,1001.08
2017-08-31T07:52:32.709Z,1001.07
2017-08-31T07:53:32.737Z,1001.04
2017-08-31T07:54:32.793Z,1001.04
2017-08-31T07:55:32.777Z,1001.03
2017-08-31T07:56:32.715Z,1001.03
2017-08-31T07:57:32.738Z,1001.01
2017-08-31T07:58:32.800Z,1001.00
2017-08-31T07:59:32.788Z,1001.09
2017-08-31T08:00:32.720Z,1001.22
2017-08-31T08:01:32.806Z,1001.28
2017-08-31T08:02:32.736Z,1001.33
2017-08-31T08:03:32.738Z,1001.39
2017-08-31T08:04:32.721Z,1001.33
2017-08-31T08:05:32.768Z,1001.38
2017-08-31T08:06:32.773Z,1001.40
2017-08-31T08:07:32.754Z,1001.43
2017-08-31T08:08:32.753Z,1001.45
2017-08-31T08:09:32.715Z,1001.54
2017-08-31T08:10:32.717Z,1001.57
2017-08-31T08:11:32.720Z,1001.63
2017-08-31T08:12:32.786Z,1001.66
2017-08-31T08:13:32.723Z,1001.81
2017-08-31T08:14:32.802Z,1001.74
2017-08-31T08:15:32.756Z,1001.84
2017-08-31T08:16:32.788Z,1001.83
2017-08-31T08:17:32.759Z,1001.87
2017-08-31T08:18:32.764Z,1001.83
2017-08-31T08:19:32.759Z,1001.89
2017-08-31T08:20:32.750Z,1001.87
2017-08-31T08:21:32.716Z,1001.97
2017-08-31T08:22:32.743Z,1001.97
2017-08-31T08:23:32.780Z,1002.01
2017-08-31T08:24:32.756Z,1002.08
2017-08-31T08:25:32.779Z,1002.13
2017-08-31T08:26:32.750Z,1002.18
2017-08-31T08:27:32.749Z,1002.21
2017-08-31T08:28:32.789Z,1002.22
2017-08-31T08:29:32.721Z,1002.20
2017-08-31T08:30:32.752Z,1002.22
2017-08-31T08:31:32.808Z,1002.26
2017-08-31T08:32:32.795Z,1002.32
2017-08-31T08:33:32.737Z,1002.33
2017-08-31T08:34:32.773Z,1002.39
2017-08-31T08:35:32.760Z,1002.40
2017-08-31T08:36:32.831Z,1002.41
2017-08-31T08:37:32.763Z,1002.49
2017-08-31T08:38:32.735Z,1002.49
2017-08-31T08:39:32.783Z,1002.54
2017-08-31T08:40:32.737Z,1002.53
2017-08-31T08:41:32.759Z,1002.53
2017-08-31T08:42:32.737Z,1002.61
2017-08-31T08:43:32.749Z,1002.63
2017-08-31T08:44:32.833Z,1002.65
2017-08-31T08:45:32.766Z,1002.69
2017-08-31T08:46:32.780Z,1002.73
2017-08-31T08:47:32.771Z,1002.77
2017-08-31T08:48:32.830Z,1002.70
2017-08-31T08:49:32.743Z,1002.82
2017-08-31T08:50:32.751Z,1002.79
2017-08-31T08:51:32.737Z,1002.83
2017-08-31T08:52:32.800Z,1002.83
2017-08-31T08:53:32.766Z,1002.84
2017-08-31T08:54:32.795Z,1002.86
2017-08-31T08:55:32.804Z,1002.85
2017-08-31T08:56:32.743Z,1002.86
2017-08-31T08:57:32.808Z,1002.92
2017-08-31T08:58:32.801Z,1002.91
2017-08-31T08:59:32.735Z,1002.86
2017-08-31T09:00:32.801Z,1002.86
2017-08-31T09:01:32.826Z,1002.88
2017-08-31T09:02:32.776Z,1002.89
2017-08-31T09:03:32.769Z,1002.91
2017-08-31T09:04:32.820Z,1002.95
2017-08-31T09:05:32.847Z,1002.94
2017-08-31T09:06:32.850Z,1002.99
2017-08-31T09:07:32.827Z,1002.94
2017-08-31T09:08:32.782Z,1003.03
2017-08-31T09:09:32.754Z,1003.08
2017-08-31T09:10:32.840Z,1003.13
2017-08-31T09:11:32.829Z,1003.11
2017-08-31T09:12:32.816Z,1003.17
2017-08-31T09:13:32.757Z,1003.14
2017-08-31T09:14:32.846Z,1003.17
2017-08-31T09:15:32.834Z,1003.23
2017-08-31T09:16:32.823Z,1003.23
2017-08-31T09:17:32.785Z,1003.29
2017-08-31T09:18:32.762Z,1003.23
2017-08-31T09:19:32.827Z,1003.31
2017-08-31T09:20:32.792Z,1003.37
2017-08-31T09:21:32.766Z,1003.40
2017-08-31T09:22:32.852Z,1003.38
2017-08-31T09:23:32.855Z,1003.44
2017-08-31T09:24:32.837Z,1003.44
2017-08-31T09:25:32.765Z,1003.39
2017-08-31T09:26:32.772Z,1003.27
2017-08-31T09:27:32.838Z,1003.34
2017-08-31T09:28:32.830Z,1003.36
2017-08-31T09:29:32.788Z,1003.33
2017-08-31T09:30:32.868Z,1003.37
2017-08-31T09:31:32.766Z,1003.38
2017-08-31T09:32:32.774Z,1003.37
2017-08-31T09:33:32.792Z,1003.49
2017-08-31T09:34:32.858Z,1003.44
2017-08-31T09:35:32.859Z,1003.42
2017-08-31T09:36:32.801Z,1003.52
2017-08-31T09:37:32.830Z,1003.53
2017-08-31T09:38:32.839Z,1003.58
2017-08-31T09:39:32.863Z,1003.65
2017-08-31T09:40:32.872Z,1003.63
2017-08-31T09:41:32.829Z,1003.68
2017-08-31T09:42:32.770Z,1003.72
2017-08-31T09:43:32.828Z,1003.77
2017-08-31T09:44:32.795Z,1003.79
2017-08-31T09:45:32.770Z,1003.86
2017-08-31T09:46:32.796Z,1003.90
2017-08-31T09:47:32.806Z,1003.88
2017-08-31T09:48:32.801Z,1003.84
2017-08-31T09:49:32.829Z,1003.80
2017-08-31T09:50:32.833Z,1003.77
2017-08-31T09:51:32.780Z,1003.84
2017-08-31T09:52:32.790Z,1003.90
2017-08-31T09:53:32.801Z,1003.97
2017-08-31T09:54:32.818Z,1003.99
2017-08-31T09:55:32.881Z,1004.00
2017-08-31T09:56:32.870Z,1004.01
2017-08-31T09:57:32.885Z,1003.91
2017-08-31T09:58:32.842Z,1003.85
2017-08-31T09:59:32.778Z,1003.90
2017-08-31T10:00:32.824Z,1003.92
2017-08-31T10:01:32.793Z,1003.91
2017-08-31T10:02:32.864Z,1003.92
2017-08-31T10:03:32.795Z,1003.92
2017-08-31T10:04:32.787Z,1003.91
2017-08-31T10:05:32.809Z,1004.02
2017-08-31T10:06:32.877Z,1003.94
2017-08-31T10:07:32.801Z,1004.05
2017-08-31T10:08:32.790Z,1004.13
2017-08-31T10:09:32.795Z,1004.00
2017-08-31T10:10:32.844Z,1004.15
2017-08-31T10:11:32.871Z,1004.15
2017-08-31T10:12:32.781Z,1004.22
2017-08-31T10:13:32.812Z,1004.27
2017-08-31T10:14:32.846Z,1004.26
2017-08-31T10:15:32.847Z,1004.23
2017-08-31T10:16:32.815Z,1004.19
2017-08-31T10:17:32.820Z,1004.22
2017-08-31T10:18:32.785Z,1004.26
2017-08-31T10:19:32.817Z,1004.36
2017-08-31T10:20:32.819Z,1004.41
2017-08-31T10:21:32.869Z,1004.42
2017-08-31T10:22:32.867Z,1004.46
2017-08-31T10:23:32.804Z,1004.43
2017-08-31T10:24:32.853Z,1004.46
2017-08-31T10:25:32.887Z,1004.50
2017-08-31T10:26:32.836Z,1004.52
2017-08-31T10:27:32.801Z,1004.49
2017-08-31T10:28:32.896Z,1004.54
2017-08-31T10:29:32.898Z,1004.51
2017-08-31T10:30:32.801Z,1004.47
2017-08-31T10:31:32.880Z,1004.49
2017-08-31T10:32:32.826Z,1004.49
2017-08-31T10:33:32.759Z,1004.54
2017-08-31T10:34:32.777Z,1004.54
2017-08-31T10:35:32.829Z,1004.57
2017-08-31T10:36:32.783Z,1004.60
2017-08-31T10:37:32.821Z,1004.67
2017-08-31T10:38:32.805Z,1004.72
2017-08-31T10:39:32.829Z,1004.69
2017-08-31T10:40:32.782Z,1004.74
2017-08-31T10:41:32.830Z,1004.83
2017-08-31T10:42:32.886Z,1004.80
2017-08-31T10:43:32.818Z,1004.76
2017-08-31T10:44:32.853Z,1004.82
2017-08-31T10:45:32.847Z,1004.85
2017-08-31T10:46:32.902Z,1004.83
2017-08-31T10:47:32.855Z,1004.82
2017-08-31T10:48:32.906Z,1004.84
2017-08-31T10:49:32.839Z,1004.88
2017-08-31T10:50:32.869Z,1004.85
2017-08-31T10:51:32.889Z,1004.89
2017-08-31T10:52:32.841Z,1004.89
2017-08-31T10:53:32.853Z,1004.83
2017-08-31T10:54:32.838Z,1004.86
2017-08-31T10:55:32.925Z,1004.82
2017-08-31T10:56:32.881Z,1004.88
2017-08-31T10:57:32.824Z,1004.80
2017-08-31T10:58:32.820Z,1004.83
2017-08-31T10:59:32.829Z,1004.85
2017-08-31T11:00:32.896Z,1004.87
2017-08-31T11:01:32.911Z,1004.89
2017-08-31T11:02:32.888Z,1004.89
2017-08-31T11:03:32.827Z,1004.90
2017-08-31T11:04:32.885Z,1004.90
2017-08-31T11:05:32.849Z,1004.91
2017-08-31T11:06:32.891Z,1004.90
2017-08-31T11:07:32.832Z,1004.90
2017-08-31T11:08:32.824Z,1004.86
2017-08-31T11:09:32.914Z,1004.86
2017-08-31T11:10:32.853Z,1004.92
2017-08-31T11:11:32.861Z,1004.88
2017-08-31T11:12:32.851Z,1004.95
2017-08-31T11:13:32.796Z,1005.01
2017-08-31T11:14:32.783Z,1005.07
2017-08-31T11:15:32.861Z,1005.05
2017-08-31T11:16:32.834Z,1005.09
2017-08-31T11:17:32.891Z,1005.10
2017-08-31T11:18:32.833Z,1005.11
2017-08-31T11:19:32.854Z,1005.06
2017-08-31T11:20:32.800Z,1005.15
2017-08-31T11:21:32.854Z,1005.13
2017-08-31T11:22:32.830Z,1005.13
2017-08-31T11:23:32.869Z,1005.19
2017-08-31T11:24:32.857Z,1005.19
2017-08-31T11:25:32.858Z,1005.18
2017-08-31T11:26:32.931Z,1005.22
2017-08-31T11:27:33.124Z,1005.17
2017-08-31T11:28:33.030Z,1005.14
2017-08-31T11:29:32.984Z,1005.11
2017-08-31T11:30:32.957Z,1005.16
2017-08-31T11:31:32.928Z,1005.13
2017-08-31T11:32:33.026Z,1005.14
2017-08-31T11:33:32.951Z,1005.23
2017-08-31T11:34:32.979Z,1005.31
2017-08-31T11:35:32.871Z,1005.34
2017-08-31T11:36:33.099Z,1005.38
2017-08-31T11:37:32.995Z,1005.33
2017-08-31T11:38:32.920Z,1005.34
2017-08-31T11:39:32.872Z,1005.39
2017-08-31T11:40:32.920Z,1005.43
2017-08-31T11:41:32.870Z,1005.42
2017-08-31T11:42:32.838Z,1005.43
2017-08-31T11:43:32.873Z,1005.43
2017-08-31T11:44:32.856Z,1005.46
2017-08-31T11:45:32.850Z,1005.47
2017-08-31T11:46:32.870Z,1005.53
2017-08-31T11:47:32.826Z,1005.59
2017-08-31T11:48:32.872Z,1005.62
2017-08-31T11:49:32.880Z,1005.55
2017-08-31T11:50:32.856Z,1005.60
2017-08-31T11:51:32.875Z,1005.65
2017-08-31T11:52:32.873Z,1005.59
2017-08-31T11:53:32.915Z,1005.60
2017-08-31T11:54:32.915Z,1005.60
2017-08-31T11:55:32.887Z,1005.61
2017-08-31T11:56:32.919Z,1005.66
2017-08-31T11:57:32.846Z,1005.65
2017-08-31T11:58:32.880Z,1005.73
2017-08-31T11:59:32.827Z,1005.81
2017-08-31T12:00:32.859Z,1005.71
2017-08-31T12:01:32.862Z,1005.72
2017-08-31T12:02:32.851Z,1005.75
2017-08-31T12:03:32.863Z,1005.72
2017-08-31T12:04:32.885Z,1005.73
2017-08-31T12:05:32.879Z,1005.78
2017-08-31T12:06:32.916Z,1005.81
2017-08-31T12:07:32.915Z,1005.91
2017-08-31T12:08:32.858Z,1005.88
2017-08-31T12:09:32.918Z,1005.97
2017-08-31T12:10:32.889Z,1005.98
2017-08-31T12:11:32.879Z,1005.95
2017-08-31T12:12:32.854Z,1006.06
2017-08-31T12:13:32.920Z,1006.04
2017-08-31T12:14:32.929Z,1006.15
2017-08-31T12:15:32.852Z,1006.06
2017-08-31T12:16:32.888Z,1006.11
2017-08-31T12:17:32.862Z,1006.12
2017-08-31T12:18:32.857Z,1006.08
2017-08-31T12:19:32.918Z,1006.15
2017-08-31T12:21:32.862Z,1006.10